KMPZ/MPZ METAR and TAF weather

Enter ICAO airport designator
Station Type Date Time Source
KMPZ METAR 2021/09/28 15:35 UTC NOAA

KMPZ 281535Z AUTO 13007KT 10SM CLR 22/17 A2997 RMK AO2


Station Type Date Time Source
KMPZ Decoded METAR 2021/09/28 15:35 UTC NOAA

Mount Pleasant, Mount Pleasant Municipal Airport, IA, United States (KMPZ) 40-56-48N 091-30-40W
Sep 28, 2021 - 11:35 AM EDT / 2021.09.28 1535 UTC
Wind: from the SE (130 degrees) at 8 MPH (7 KT):0
Visibility: 10 mile(s):0
Sky conditions: clear
Temperature: 71 F (22 C)
Dew Point: 62 F (17 C)
Relative Humidity: 73%
Pressure (altimeter): 29.97 in. Hg (1014 hPa)
ob: KMPZ 281535Z AUTO 13007KT 10SM CLR 22/17 A2997 RMK AO2
cycle: 15

Station Type Date Time Source
KMPZ TAF UTC NOAA

Error!

Example: see airport list